createdAt,value
2023-01-03T00:02:13.645Z,97.22
2023-01-03T00:04:45.825Z,97.31
2023-01-03T00:07:36.358Z,97.63
2023-01-03T00:10:09.072Z,97.30
2023-01-03T00:12:37.771Z,97.39
2023-01-03T00:15:05.846Z,97.17
2023-01-03T00:17:33.032Z,97.19
2023-01-03T00:20:00.678Z,97.51
2023-01-03T00:22:31.672Z,97.92
2023-01-03T00:24:58.836Z,97.24
2023-01-03T00:27:27.148Z,97.37
2023-01-03T00:29:55.282Z,97.02
2023-01-03T00:32:22.744Z,97.11
2023-01-03T00:34:49.915Z,96.88
2023-01-03T00:37:17.390Z,96.38
2023-01-03T00:39:44.706Z,96.12
2023-01-03T00:42:11.857Z,96.30
2023-01-03T00:44:39.053Z,96.96
2023-01-03T00:47:06.370Z,97.11
2023-01-03T00:49:33.846Z,97.59
2023-01-03T00:52:01.017Z,97.20
2023-01-03T00:54:28.363Z,97.22
2023-01-03T00:56:55.619Z,97.36
2023-01-03T00:59:23.458Z,97.36
2023-01-03T01:01:55.706Z,97.26
2023-01-03T01:04:31.873Z,96.75
2023-01-03T01:07:03.398Z,96.88
2023-01-03T01:09:33.719Z,97.08
2023-01-03T01:12:01.185Z,96.66
2023-01-03T01:14:30.877Z,96.80
2023-01-03T01:17:04.766Z,96.74
2023-01-03T01:19:35.097Z,96.77
2023-01-03T01:22:03.076Z,97.73
2023-01-03T01:24:30.659Z,97.47
2023-01-03T01:26:57.925Z,97.13
2023-01-03T01:29:25.431Z,96.82
2023-01-03T01:31:53.047Z,96.59
2023-01-03T01:34:20.464Z,96.58
2023-01-03T01:36:48.195Z,96.01
2023-01-03T01:39:22.010Z,95.99
2023-01-03T01:42:20.425Z,96.00
2023-01-03T01:44:54.306Z,96.07
2023-01-03T01:47:27.455Z,96.83
2023-01-03T01:50:13.305Z,97.54
2023-01-03T01:52:46.400Z,97.63
2023-01-03T01:55:18.506Z,97.19
2023-01-03T01:57:46.174Z,97.11
2023-01-03T02:00:13.837Z,96.89
2023-01-03T02:02:48.429Z,96.88
2023-01-03T02:05:18.904Z,96.59
2023-01-03T02:07:49.979Z,96.69
2023-01-03T02:10:21.156Z,96.24
2023-01-03T02:13:06.573Z,95.97
2023-01-03T02:15:45.920Z,95.80
2023-01-03T02:18:35.714Z,96.09
2023-01-03T02:21:46.607Z,95.92
2023-01-03T02:24:26.484Z,96.18
2023-01-03T02:28:04.496Z,96.13
2023-01-03T02:30:34.406Z,95.98
2023-01-03T02:33:37.948Z,95.96
2023-01-03T02:36:44.005Z,95.79
2023-01-03T02:39:23.815Z,95.83
2023-01-03T02:42:25.698Z,95.45
2023-01-03T02:45:04.503Z,95.69
2023-01-03T02:47:43.308Z,96.32
2023-01-03T02:50:14.195Z,96.24
2023-01-03T02:52:42.543Z,96.70
2023-01-03T02:55:24.356Z,97.10
2023-01-03T02:57:59.364Z,97.15
2023-01-03T03:00:30.713Z,97.31
2023-01-03T03:03:05.122Z,97.69
2023-01-03T03:05:55.244Z,97.79
2023-01-03T03:08:22.697Z,97.92
2023-01-03T03:11:09.064Z,97.92
2023-01-03T03:13:57.154Z,98.32
2023-01-03T03:16:48.777Z,98.39
2023-01-03T03:19:46.344Z,98.66
2023-01-03T03:22:49.123Z,98.22
2023-01-03T03:25:30.833Z,97.84
2023-01-03T03:28:24.487Z,97.37
2023-01-03T03:30:55.354Z,97.63
2023-01-03T03:33:26.543Z,97.34
2023-01-03T03:35:56.546Z,97.08
2023-01-03T03:38:33.550Z,96.91
2023-01-03T03:41:37.369Z,96.87
2023-01-03T03:44:36.372Z,96.77
2023-01-03T03:47:26.124Z,97.31
2023-01-03T03:49:56.854Z,98.22
2023-01-03T03:52:31.114Z,98.74
2023-01-03T03:55:15.412Z,98.83
2023-01-03T03:57:50.392Z,99.39
2023-01-03T04:00:22.216Z,100.00
2023-01-03T04:02:50.246Z,100.00
2023-01-03T04:05:21.234Z,99.63
2023-01-03T04:07:48.635Z,99.66
2023-01-03T04:10:20.486Z,99.40
2023-01-03T04:12:52.051Z,99.84
2023-01-03T04:15:19.293Z,99.37
2023-01-03T04:17:46.766Z,99.07
2023-01-03T04:20:15.176Z,98.51
2023-01-03T04:22:42.387Z,98.55
2023-01-03T04:25:09.655Z,98.80
2023-01-03T04:27:37.175Z,98.43
2023-01-03T04:30:05.915Z,97.44
2023-01-03T04:32:33.286Z,96.31
2023-01-03T04:35:00.495Z,97.83
2023-01-03T04:37:27.689Z,98.84
2023-01-03T04:39:54.846Z,98.74
2023-01-03T04:42:40.510Z,99.86
2023-01-03T04:45:08.353Z,100.00
2023-01-03T04:47:35.754Z,100.00
2023-01-03T04:50:02.949Z,100.00
2023-01-03T04:52:30.266Z,100.00
2023-01-03T04:54:57.659Z,100.00
2023-01-03T04:57:24.967Z,100.00
2023-01-03T04:59:52.132Z,100.00
2023-01-03T05:02:19.431Z,100.00
2023-01-03T05:04:46.866Z,100.00
2023-01-03T05:07:14.268Z,100.00
2023-01-03T05:09:41.599Z,100.00
2023-01-03T05:12:12.388Z,100.00
2023-01-03T05:14:41.688Z,100.00
2023-01-03T05:17:09.461Z,100.00
2023-01-03T05:19:57.874Z,100.00
2023-01-03T05:22:44.004Z,100.00
2023-01-03T05:25:29.875Z,100.00
2023-01-03T05:27:58.061Z,100.00
2023-01-03T05:30:25.711Z,100.00
2023-01-03T05:32:52.876Z,100.00
2023-01-03T05:35:23.434Z,100.00
2023-01-03T05:37:53.829Z,100.00
2023-01-03T05:40:22.913Z,100.00
2023-01-03T05:42:50.296Z,100.00
2023-01-03T05:45:17.918Z,100.00
2023-01-03T05:47:45.196Z,100.00
2023-01-03T05:50:15.507Z,100.00
2023-01-03T05:52:45.657Z,100.00
2023-01-03T05:55:13.606Z,100.00
2023-01-03T05:57:41.033Z,100.00
2023-01-03T06:00:09.292Z,100.00
2023-01-03T06:02:36.594Z,100.00
2023-01-03T06:05:04.769Z,100.00
2023-01-03T06:07:33.291Z,100.00
2023-01-03T06:10:00.784Z,100.00
2023-01-03T06:12:28.504Z,100.00
2023-01-03T06:14:56.531Z,100.00
2023-01-03T06:17:42.236Z,100.00
2023-01-03T06:20:13.264Z,100.00
2023-01-03T06:22:40.844Z,100.00
2023-01-03T06:25:08.609Z,100.00
2023-01-03T06:27:36.093Z,99.60
2023-01-03T06:30:04.367Z,100.00
2023-01-03T06:32:32.469Z,100.00
2023-01-03T06:34:59.961Z,100.00
2023-01-03T06:37:27.387Z,100.00
2023-01-03T06:39:54.712Z,100.00
2023-01-03T06:42:48.018Z,100.00
2023-01-03T06:45:34.208Z,100.00
2023-01-03T06:48:28.723Z,100.00
2023-01-03T06:51:14.396Z,100.00
2023-01-03T06:53:43.092Z,100.00
2023-01-03T06:56:10.639Z,100.00
2023-01-03T06:58:37.869Z,100.00
2023-01-03T07:01:06.630Z,100.00
2023-01-03T07:03:34.987Z,100.00
2023-01-03T07:06:02.175Z,100.00
2023-01-03T07:08:29.365Z,100.00
2023-01-03T07:10:56.580Z,100.00
2023-01-03T07:13:42.237Z,100.00
2023-01-03T07:16:17.898Z,100.00
2023-01-03T07:18:52.663Z,100.00
2023-01-03T07:21:24.625Z,100.00
2023-01-03T07:23:56.542Z,100.00
2023-01-03T07:26:25.044Z,100.00
2023-01-03T07:28:53.347Z,100.00
2023-01-03T07:31:20.955Z,100.00
2023-01-03T07:33:48.308Z,100.00
2023-01-03T07:36:17.109Z,100.00
2023-01-03T07:38:45.683Z,100.00
2023-01-03T07:41:14.323Z,100.00
2023-01-03T07:43:47.158Z,100.00
2023-01-03T07:46:16.032Z,100.00
2023-01-03T07:48:44.883Z,100.00
2023-01-03T07:51:14.589Z,100.00
2023-01-03T07:53:42.469Z,100.00
2023-01-03T07:56:14.839Z,100.00
2023-01-03T07:58:44.240Z,100.00
2023-01-03T08:01:14.282Z,100.00
2023-01-03T08:03:42.492Z,100.00
2023-01-03T08:06:12.349Z,97.38
2023-01-03T08:08:40.542Z,96.29
2023-01-03T08:11:29.317Z,92.35
2023-01-03T08:13:56.479Z,88.27
2023-01-03T08:16:24.069Z,85.83
2023-01-03T08:18:51.542Z,83.71
2023-01-03T08:21:19.049Z,81.90
2023-01-03T08:23:46.366Z,80.43
2023-01-03T08:26:16.349Z,78.55
2023-01-03T08:28:44.848Z,78.19
2023-01-03T08:31:16.003Z,77.21
2023-01-03T08:33:50.038Z,77.00
2023-01-03T08:36:18.168Z,76.61
2023-01-03T08:38:59.932Z,75.46
2023-01-03T08:41:32.325Z,75.73
2023-01-03T08:44:02.869Z,74.03
2023-01-03T08:46:33.251Z,72.52
2023-01-03T08:49:00.866Z,71.98
2023-01-03T08:51:30.083Z,70.12
2023-01-03T08:53:57.431Z,69.55
2023-01-03T08:56:24.847Z,69.34
2023-01-03T08:58:52.463Z,68.51
2023-01-03T09:01:21.108Z,66.83
2023-01-03T09:03:48.884Z,66.29
2023-01-03T09:06:16.751Z,65.76
2023-01-03T09:08:44.833Z,65.79
2023-01-03T09:11:12.314Z,63.76
2023-01-03T09:13:39.549Z,63.48
2023-01-03T09:16:10.096Z,63.36
2023-01-03T09:18:38.836Z,62.85
2023-01-03T09:21:07.037Z,62.80
2023-01-03T09:23:35.783Z,61.25
2023-01-03T09:26:03.216Z,60.71
2023-01-03T09:28:30.529Z,59.80
2023-01-03T09:30:58.171Z,59.61
2023-01-03T09:33:25.853Z,58.47
2023-01-03T09:35:56.890Z,58.38
2023-01-03T09:38:24.228Z,57.82
2023-01-03T09:41:09.756Z,58.19
2023-01-03T09:43:41.399Z,58.04
2023-01-03T09:46:24.917Z,58.17
2023-01-03T09:48:54.052Z,58.41
2023-01-03T09:51:49.884Z,57.30
2023-01-03T09:54:44.703Z,57.87
2023-01-03T09:57:37.988Z,57.53
2023-01-03T10:00:32.263Z,57.39
2023-01-03T10:03:27.215Z,56.89
2023-01-03T10:06:08.137Z,56.83
2023-01-03T10:08:52.399Z,56.48
2023-01-03T10:11:44.751Z,56.40
2023-01-03T10:14:23.983Z,56.43
2023-01-03T10:17:03.357Z,56.35
2023-01-03T10:19:49.431Z,56.17
2023-01-03T10:22:45.370Z,55.94
2023-01-03T10:25:24.565Z,56.01
2023-01-03T10:28:01.344Z,56.08
2023-01-03T10:30:54.272Z,55.95
2023-01-03T10:33:52.192Z,56.05
2023-01-03T10:36:21.573Z,56.42
2023-01-03T10:38:53.162Z,55.98
2023-01-03T10:41:33.818Z,55.94
2023-01-03T10:44:03.629Z,56.28
2023-01-03T10:46:31.274Z,56.12
2023-01-03T10:49:28.515Z,56.81
2023-01-03T10:52:14.420Z,56.75
2023-01-03T10:54:42.587Z,56.88
2023-01-03T10:57:48.499Z,57.08
2023-01-03T11:00:28.071Z,56.74
2023-01-03T11:03:03.302Z,56.72
2023-01-03T11:05:30.696Z,56.23
2023-01-03T11:08:03.961Z,56.29
2023-01-03T11:10:58.488Z,56.72
2023-01-03T11:13:31.805Z,56.25
2023-01-03T11:16:01.488Z,56.20
2023-01-03T11:18:30.747Z,56.02
2023-01-03T11:21:16.867Z,55.75
2023-01-03T11:23:56.103Z,55.63
2023-01-03T11:26:33.937Z,56.18
2023-01-03T11:29:43.373Z,55.82
2023-01-03T11:32:22.884Z,56.18
2023-01-03T11:35:25.201Z,56.35
2023-01-03T11:38:11.962Z,56.77
2023-01-03T11:40:48.662Z,57.26
2023-01-03T11:43:34.744Z,56.93
2023-01-03T11:46:26.897Z,57.04
2023-01-03T11:49:26.547Z,57.66
2023-01-03T11:52:24.854Z,58.14
2023-01-03T11:55:19.559Z,58.73
2023-01-03T11:58:17.219Z,58.31
2023-01-03T12:01:00.823Z,58.56
2023-01-03T12:03:59.206Z,59.38
2023-01-03T12:06:41.518Z,59.08
2023-01-03T12:09:35.081Z,59.73
2023-01-03T12:12:26.566Z,59.80
2023-01-03T12:15:00.613Z,60.53
2023-01-03T12:17:45.290Z,59.88
2023-01-03T12:20:31.724Z,59.96
2023-01-03T12:23:27.184Z,59.96
2023-01-03T12:26:01.449Z,60.03
2023-01-03T12:28:38.729Z,60.50
2023-01-03T12:31:19.431Z,60.40
2023-01-03T12:34:17.642Z,60.79
2023-01-03T12:37:15.951Z,60.18
2023-01-03T12:40:35.890Z,60.10
2023-01-03T12:43:09.201Z,59.98
2023-01-03T12:46:21.529Z,60.44
2023-01-03T12:49:01.544Z,60.26
2023-01-03T12:51:30.370Z,60.76
2023-01-03T12:54:16.450Z,60.21
2023-01-03T12:57:04.988Z,60.22
2023-01-03T13:00:08.330Z,59.87
2023-01-03T13:02:52.196Z,60.45
2023-01-03T13:05:28.430Z,60.58
2023-01-03T13:08:14.483Z,60.89
2023-01-03T13:10:48.882Z,60.94
2023-01-03T13:13:19.530Z,60.21
2023-01-03T13:15:47.975Z,60.38
2023-01-03T13:18:21.391Z,60.67
2023-01-03T13:20:56.088Z,60.16
2023-01-03T13:23:31.337Z,60.79
2023-01-03T13:26:07.614Z,61.33
2023-01-03T13:28:37.288Z,61.19
2023-01-03T13:31:14.680Z,61.06
2023-01-03T13:34:11.164Z,61.38
2023-01-03T13:37:10.630Z,61.71
2023-01-03T13:39:44.063Z,62.01
2023-01-03T13:42:34.482Z,61.56
2023-01-03T13:45:11.012Z,62.43
2023-01-03T13:47:43.197Z,61.80
2023-01-03T13:50:30.063Z,62.34
2023-01-03T13:53:03.852Z,62.03
2023-01-03T13:55:38.342Z,61.78
2023-01-03T13:58:28.159Z,61.51
2023-01-03T14:01:06.153Z,61.87
2023-01-03T14:04:01.149Z,62.01
2023-01-03T14:06:49.603Z,62.18
2023-01-03T14:09:22.982Z,62.17
2023-01-03T14:12:38.296Z,62.10
2023-01-03T14:15:26.412Z,62.07
2023-01-03T14:18:02.195Z,62.48
2023-01-03T14:20:34.736Z,62.85
2023-01-03T14:23:31.805Z,62.85
2023-01-03T14:25:55.037Z,63.37
2023-01-03T14:28:26.469Z,63.02
2023-01-03T14:30:58.261Z,62.01
2023-01-03T14:33:31.696Z,61.58
2023-01-03T14:36:04.943Z,61.33
2023-01-03T14:38:34.328Z,61.33
2023-01-03T14:41:03.347Z,61.61
2023-01-03T14:43:33.959Z,61.69
2023-01-03T14:46:07.895Z,61.79
2023-01-03T14:48:35.107Z,61.50
2023-01-03T14:51:05.236Z,61.23
2023-01-03T14:53:34.476Z,60.42
2023-01-03T14:56:03.105Z,60.33
2023-01-03T14:58:36.284Z,60.29
2023-01-03T15:01:06.654Z,60.42
2023-01-03T15:03:37.266Z,60.26
2023-01-03T15:06:29.358Z,60.08
2023-01-03T15:09:12.912Z,60.11
2023-01-03T15:12:02.751Z,60.13
2023-01-03T15:14:34.297Z,59.97
2023-01-03T15:17:05.718Z,60.00
2023-01-03T15:19:36.102Z,60.13
2023-01-03T15:22:23.808Z,60.49
2023-01-03T15:25:04.056Z,60.58
2023-01-03T15:27:37.557Z,61.11
2023-01-03T15:30:22.465Z,61.44
2023-01-03T15:32:58.718Z,62.07
2023-01-03T15:35:32.088Z,62.62
2023-01-03T15:38:01.541Z,63.23
2023-01-03T15:40:32.177Z,63.48
2023-01-03T15:43:20.203Z,63.36
2023-01-03T15:46:00.351Z,63.79
2023-01-03T15:48:28.295Z,63.72
2023-01-03T15:50:56.388Z,63.64
2023-01-03T15:53:25.276Z,64.03
2023-01-03T15:56:04.841Z,64.14
2023-01-03T15:58:34.179Z,64.45
2023-01-03T16:01:02.068Z,65.10
2023-01-03T16:03:31.661Z,65.36
2023-01-03T16:05:59.299Z,66.06
2023-01-03T16:08:32.683Z,67.90
2023-01-03T16:11:03.155Z,68.39
2023-01-03T16:13:35.714Z,69.47
2023-01-03T16:16:03.316Z,70.26
2023-01-03T16:18:49.268Z,71.61
2023-01-03T16:21:17.786Z,72.35
2023-01-03T16:23:45.217Z,72.78
2023-01-03T16:26:12.986Z,73.33
2023-01-03T16:28:40.157Z,73.64
2023-01-03T16:31:24.004Z,74.16
2023-01-03T16:33:51.994Z,74.63
2023-01-03T16:36:36.756Z,75.88
2023-01-03T16:39:25.415Z,76.57
2023-01-03T16:42:13.050Z,76.30
2023-01-03T16:44:42.825Z,76.20
2023-01-03T16:47:20.695Z,76.32
2023-01-03T16:49:54.759Z,75.94
2023-01-03T16:52:29.293Z,76.54
2023-01-03T16:54:56.856Z,76.18
2023-01-03T16:57:24.577Z,75.77
2023-01-03T16:59:51.896Z,75.79
2023-01-03T17:02:19.211Z,75.95
2023-01-03T17:04:46.649Z,75.91
2023-01-03T17:07:24.187Z,75.39
2023-01-03T17:09:52.250Z,75.25
2023-01-03T17:12:23.134Z,75.46
2023-01-03T17:14:51.396Z,76.14
2023-01-03T17:17:21.597Z,77.26
2023-01-03T17:20:06.223Z,77.39
2023-01-03T17:22:34.306Z,76.88
2023-01-03T17:25:01.830Z,76.31
2023-01-03T17:27:33.158Z,77.70
2023-01-03T17:30:04.300Z,79.05
2023-01-03T17:32:31.695Z,79.11
2023-01-03T17:34:59.095Z,79.69
2023-01-03T17:37:26.619Z,81.08
2023-01-03T17:39:59.873Z,81.55
2023-01-03T17:42:29.535Z,82.14
2023-01-03T17:45:15.674Z,82.14
2023-01-03T17:48:03.297Z,82.61
2023-01-03T17:50:32.202Z,81.98
2023-01-03T17:53:02.041Z,81.88
2023-01-03T17:55:30.695Z,80.68
2023-01-03T17:58:03.799Z,79.68
2023-01-03T18:00:32.345Z,80.00
2023-01-03T18:03:03.276Z,79.41
2023-01-03T18:05:30.905Z,78.94
2023-01-03T18:08:00.831Z,78.66
2023-01-03T18:10:31.365Z,78.78
2023-01-03T18:12:59.009Z,79.18
2023-01-03T18:15:26.677Z,79.63
2023-01-03T18:17:53.950Z,79.18
2023-01-03T18:20:21.597Z,79.30
2023-01-03T18:22:49.590Z,79.11
2023-01-03T18:25:28.857Z,79.00
2023-01-03T18:28:02.940Z,79.19
2023-01-03T18:30:30.674Z,80.01
2023-01-03T18:32:57.972Z,80.64
2023-01-03T18:35:32.234Z,80.86
2023-01-03T18:38:02.704Z,81.25
2023-01-03T18:40:30.741Z,81.18
2023-01-03T18:43:13.881Z,81.23
2023-01-03T18:45:42.398Z,80.80
2023-01-03T18:48:15.670Z,80.65
2023-01-03T18:50:44.898Z,81.31
2023-01-03T18:53:19.188Z,82.07
2023-01-03T18:55:47.131Z,82.58
2023-01-03T18:58:38.065Z,87.12
2023-01-03T19:01:06.188Z,87.18
2023-01-03T19:03:34.832Z,87.11
2023-01-03T19:06:03.450Z,89.82
2023-01-03T19:08:33.775Z,85.84
2023-01-03T19:11:13.445Z,85.44
2023-01-03T19:13:54.575Z,86.80
2023-01-03T19:16:28.066Z,87.06
2023-01-03T19:18:56.208Z,87.21
2023-01-03T19:21:25.824Z,87.21
2023-01-03T19:24:04.644Z,86.94
2023-01-03T19:26:41.470Z,87.14
2023-01-03T19:29:19.432Z,86.91
2023-01-03T19:31:49.885Z,87.11
2023-01-03T19:34:20.296Z,87.93
2023-01-03T19:36:48.486Z,89.75
2023-01-03T19:39:19.594Z,89.69
2023-01-03T19:42:12.650Z,88.41
2023-01-03T19:44:41.427Z,88.06
2023-01-03T19:47:14.409Z,87.69
2023-01-03T19:49:43.260Z,87.48
2023-01-03T19:52:10.917Z,88.17
2023-01-03T19:54:39.108Z,89.64
2023-01-03T19:57:19.957Z,92.14
2023-01-03T19:59:52.929Z,93.28
2023-01-03T20:02:32.664Z,95.14
2023-01-03T20:05:01.157Z,94.80
2023-01-03T20:07:28.445Z,94.10
2023-01-03T20:12:41.165Z,93.61
2023-01-03T20:15:22.134Z,93.18
2023-01-03T20:17:49.916Z,92.77
2023-01-03T20:20:17.279Z,92.83
2023-01-03T20:23:08.055Z,92.51
2023-01-03T20:25:37.414Z,91.79
2023-01-03T20:28:06.026Z,91.14
2023-01-03T20:30:34.785Z,92.78
2023-01-03T20:33:02.107Z,94.26
2023-01-03T20:38:25.132Z,96.16
2023-01-03T20:40:56.518Z,96.12
2023-01-03T20:43:24.387Z,95.63
2023-01-03T20:45:55.813Z,95.02
2023-01-03T20:48:26.299Z,95.02
2023-01-03T20:50:55.048Z,94.69
2023-01-03T20:53:25.694Z,93.62
2023-01-03T20:55:53.762Z,93.03
2023-01-03T20:58:25.474Z,92.74
2023-01-03T21:00:56.925Z,91.80
2023-01-03T21:03:29.203Z,90.51
2023-01-03T21:05:56.412Z,89.89
2023-01-03T21:08:42.210Z,89.41
2023-01-03T21:11:09.638Z,88.03
2023-01-03T21:13:37.088Z,87.53
2023-01-03T21:16:31.467Z,88.89
2023-01-03T21:19:12.277Z,90.80
2023-01-03T21:21:40.769Z,91.99
2023-01-03T21:24:09.890Z,91.97
2023-01-03T21:26:37.560Z,92.34
2023-01-03T21:29:05.567Z,91.37
2023-01-03T21:31:34.806Z,91.02
2023-01-03T21:34:22.040Z,90.90
2023-01-03T21:36:49.538Z,94.03
2023-01-03T21:39:17.054Z,91.17
2023-01-03T21:42:04.126Z,96.14
2023-01-03T21:44:31.457Z,94.19
2023-01-03T21:46:58.616Z,83.78
2023-01-03T21:49:26.115Z,83.82
2023-01-03T21:51:53.345Z,86.41
2023-01-03T21:54:20.584Z,86.18
2023-01-03T21:56:47.845Z,86.31
2023-01-03T21:59:16.119Z,87.33
2023-01-03T22:02:03.817Z,87.57
2023-01-03T22:04:32.668Z,88.14
2023-01-03T22:07:02.850Z,88.86
2023-01-03T22:09:50.313Z,90.39
2023-01-03T22:12:19.429Z,91.99
2023-01-03T22:14:47.435Z,92.59
2023-01-03T22:17:15.627Z,92.56
2023-01-03T22:19:43.084Z,92.19
2023-01-03T22:22:10.689Z,92.29
2023-01-03T22:24:37.996Z,92.20
2023-01-03T22:27:05.458Z,91.57
2023-01-03T22:29:32.723Z,91.42
2023-01-03T22:31:59.959Z,91.73
2023-01-03T22:34:27.560Z,92.18
2023-01-03T22:36:55.106Z,91.75
2023-01-03T22:39:22.419Z,91.93
2023-01-03T22:41:49.785Z,92.37
2023-01-03T22:44:17.151Z,93.06
2023-01-03T22:46:44.480Z,93.75
2023-01-03T22:49:11.792Z,94.55
2023-01-03T22:51:39.141Z,95.08
2023-01-03T22:54:06.419Z,94.19
2023-01-03T22:56:54.696Z,94.36
2023-01-03T22:59:22.081Z,95.17
2023-01-03T23:01:50.479Z,96.16
2023-01-03T23:04:19.469Z,95.92
2023-01-03T23:06:46.975Z,95.93
2023-01-03T23:09:14.733Z,95.98
2023-01-03T23:12:01.017Z,96.29
2023-01-03T23:14:28.595Z,96.26
2023-01-03T23:16:56.025Z,98.69
2023-01-03T23:19:25.817Z,99.21
2023-01-03T23:21:54.038Z,100.00
2023-01-03T23:24:24.515Z,100.00
2023-01-03T23:26:52.632Z,100.00
2023-01-03T23:29:19.926Z,100.00
2023-01-03T23:31:47.434Z,100.00
2023-01-03T23:34:14.739Z,100.00
2023-01-03T23:36:44.749Z,100.00
2023-01-03T23:39:13.548Z,100.00
2023-01-03T23:41:41.091Z,100.00
2023-01-03T23:44:08.710Z,100.00
2023-01-03T23:46:36.185Z,100.00
2023-01-03T23:49:03.793Z,100.00
2023-01-03T23:51:31.006Z,100.00
2023-01-03T23:53:58.389Z,100.00
2023-01-03T23:56:25.921Z,100.00
2023-01-03T23:58:53.169Z,100.00
